createdAt,value
2023-02-03T00:00:59.712Z,97530.84
2023-02-03T00:03:26.430Z,97526.06
2023-02-03T00:05:53.836Z,97537.25
2023-02-03T00:08:20.562Z,97527.72
2023-02-03T00:10:47.541Z,97521.75
2023-02-03T00:13:14.526Z,97507.19
2023-02-03T00:15:41.209Z,97511.59
2023-02-03T00:18:07.837Z,97520.38
2023-02-03T00:20:34.517Z,97525.44
2023-02-03T00:23:09.975Z,97500.84
2023-02-03T00:25:37.465Z,97469.16
2023-02-03T00:28:05.617Z,97472.31
2023-02-03T00:30:35.036Z,97483.47
2023-02-03T00:33:02.485Z,97500.09
2023-02-03T00:35:29.381Z,97486.53
2023-02-03T00:37:57.721Z,97483.03
2023-02-03T00:40:27.007Z,97497.63
2023-02-03T00:42:55.006Z,97502.38
2023-02-03T00:45:21.690Z,97517.44
2023-02-03T00:47:48.347Z,97531.69
2023-02-03T00:50:14.990Z,97528.53
2023-02-03T00:52:41.701Z,97527.75
2023-02-03T00:55:08.910Z,97516.25
2023-02-03T00:57:35.591Z,97517.56
2023-02-03T01:00:02.507Z,97519.13
2023-02-03T01:02:29.233Z,97524.66
2023-02-03T01:04:55.895Z,97532.66
2023-02-03T01:07:22.567Z,97531.09
2023-02-03T01:09:49.218Z,97542.97
2023-02-03T01:12:15.919Z,97537.41
2023-02-03T01:14:42.700Z,97527.03
2023-02-03T01:17:09.647Z,97523.44
2023-02-03T01:19:36.311Z,97512.38
2023-02-03T01:22:03.002Z,97523.84
2023-02-03T01:24:30.860Z,97517.13
2023-02-03T01:26:57.672Z,97528.63
2023-02-03T01:29:24.381Z,97533.41
2023-02-03T01:31:51.041Z,97538.56
2023-02-03T01:34:18.644Z,97540.97
2023-02-03T01:36:47.010Z,97546.91
2023-02-03T01:39:14.535Z,97555.66
2023-02-03T01:41:41.634Z,97552.56
2023-02-03T01:44:44.140Z,97564.81
2023-02-03T01:47:35.174Z,97576.38
2023-02-03T01:50:21.041Z,97571.72
2023-02-03T01:53:03.946Z,97567.41
2023-02-03T01:55:38.932Z,97571.81
2023-02-03T01:58:26.080Z,97570.22
2023-02-03T02:00:54.292Z,97561.16
2023-02-03T02:03:25.084Z,97579.75
2023-02-03T02:06:00.659Z,97588.47
2023-02-03T02:08:27.680Z,97590.06
2023-02-03T02:10:54.637Z,97580.97
2023-02-03T02:13:22.703Z,97593.22
2023-02-03T02:15:58.703Z,97590.44
2023-02-03T02:18:34.439Z,97601.56
2023-02-03T02:21:24.080Z,97613.88
2023-02-03T02:24:23.280Z,97632.09
2023-02-03T02:27:14.417Z,97648.00
2023-02-03T02:29:59.259Z,97644.09
2023-02-03T02:32:28.665Z,97635.38
2023-02-03T02:35:18.575Z,97644.88
2023-02-03T02:37:50.034Z,97639.28
2023-02-03T02:40:35.245Z,97631.81
2023-02-03T02:43:10.954Z,97636.13
2023-02-03T02:45:58.970Z,97638.50
2023-02-03T02:48:47.840Z,97634.91
2023-02-03T02:51:16.607Z,97632.91
2023-02-03T02:53:49.499Z,97638.03
2023-02-03T02:56:17.609Z,97643.16
2023-02-03T02:58:48.743Z,97658.22
2023-02-03T03:01:16.529Z,97662.16
2023-02-03T03:03:45.252Z,97656.63
2023-02-03T03:06:35.514Z,97668.50
2023-02-03T03:09:12.459Z,97659.78
2023-02-03T03:11:45.118Z,97669.69
2023-02-03T03:14:15.781Z,97678.84
2023-02-03T03:16:48.542Z,97676.47
2023-02-03T03:19:22.618Z,97678.47
2023-02-03T03:21:57.691Z,97689.56
2023-02-03T03:24:29.624Z,97685.19
2023-02-03T03:27:02.569Z,97677.25
2023-02-03T03:29:48.401Z,97676.06
2023-02-03T03:32:15.722Z,97669.31
2023-02-03T03:34:42.575Z,97683.63
2023-02-03T03:37:12.189Z,97668.53
2023-02-03T03:40:03.069Z,97666.91
2023-02-03T03:42:35.891Z,97677.25
2023-02-03T03:45:20.155Z,97678.00
2023-02-03T03:48:18.875Z,97672.06
2023-02-03T03:50:52.832Z,97664.56
2023-02-03T03:53:20.694Z,97658.63
2023-02-03T03:55:50.517Z,97655.50
2023-02-03T03:58:24.250Z,97656.72
2023-02-03T04:00:53.843Z,97659.84
2023-02-03T04:03:36.175Z,97659.47
2023-02-03T04:06:02.888Z,97665.44
2023-02-03T04:08:29.579Z,97661.88
2023-02-03T04:10:56.260Z,97666.25
2023-02-03T04:13:23.104Z,97666.66
2023-02-03T04:15:49.782Z,97667.09
2023-02-03T04:18:17.147Z,97670.25
2023-02-03T04:20:43.703Z,97667.09
2023-02-03T04:23:10.725Z,97672.66
2023-02-03T04:25:37.412Z,97677.41
2023-02-03T04:28:04.314Z,97682.97
2023-02-03T04:30:31.041Z,97680.63
2023-02-03T04:32:57.870Z,97679.44
2023-02-03T04:35:24.565Z,97681.41
2023-02-03T04:37:51.303Z,97691.31
2023-02-03T04:40:18.303Z,97690.94
2023-02-03T04:42:44.941Z,97695.69
2023-02-03T04:45:12.933Z,97705.19
2023-02-03T04:47:40.912Z,97689.34
2023-02-03T04:50:08.103Z,97706.00
2023-02-03T04:52:34.866Z,97709.16
2023-02-03T04:55:01.768Z,97730.94
2023-02-03T04:57:28.371Z,97731.72
2023-02-03T04:59:55.065Z,97732.91
2023-02-03T05:02:21.761Z,97732.91
2023-02-03T05:04:48.417Z,97745.19
2023-02-03T05:07:15.068Z,97726.56
2023-02-03T05:09:41.917Z,97747.16
2023-02-03T05:12:08.612Z,97747.56
2023-02-03T05:14:35.250Z,97755.09
2023-02-03T05:17:01.906Z,97753.47
2023-02-03T05:19:28.599Z,97753.47
2023-02-03T05:21:55.220Z,97756.22
2023-02-03T05:24:21.872Z,97764.53
2023-02-03T05:26:48.478Z,97760.56
2023-02-03T05:29:15.110Z,97758.19
2023-02-03T05:31:41.781Z,97757.41
2023-02-03T05:34:08.617Z,97762.16
2023-02-03T05:36:35.233Z,97764.47
2023-02-03T05:39:02.039Z,97754.94
2023-02-03T05:41:47.112Z,97774.78
2023-02-03T05:44:13.735Z,97774.78
2023-02-03T05:46:40.349Z,97763.72
2023-02-03T05:49:06.978Z,97767.69
2023-02-03T05:51:33.643Z,97764.53
2023-02-03T05:54:00.389Z,97763.72
2023-02-03T05:56:27.022Z,97767.69
2023-02-03T05:58:53.687Z,97775.16
2023-02-03T06:01:20.499Z,97774.78
2023-02-03T06:03:47.750Z,97770.06
2023-02-03T06:06:14.730Z,97766.09
2023-02-03T06:08:41.728Z,97768.47
2023-02-03T06:11:08.770Z,97776.38
2023-02-03T06:13:35.355Z,97785.09
2023-02-03T06:16:02.401Z,97783.09
2023-02-03T06:18:29.143Z,97792.19
2023-02-03T06:20:55.881Z,97802.47
2023-02-03T06:23:23.044Z,97809.22
2023-02-03T06:25:51.470Z,97805.25
2023-02-03T06:28:18.794Z,97794.16
2023-02-03T06:30:45.625Z,97812.00
2023-02-03T06:33:12.407Z,97814.00
2023-02-03T06:35:39.136Z,97806.50
2023-02-03T06:38:05.876Z,97813.66
2023-02-03T06:40:32.647Z,97810.50
2023-02-03T06:42:59.415Z,97818.41
2023-02-03T06:45:26.118Z,97823.16
2023-02-03T06:47:52.854Z,97833.47
2023-02-03T06:50:19.711Z,97830.69
2023-02-03T06:52:46.571Z,97843.03
2023-02-03T06:55:13.231Z,97833.13
2023-02-03T06:57:47.442Z,97833.50
2023-02-03T07:00:18.783Z,97837.47
2023-02-03T07:02:46.857Z,97844.59
2023-02-03T07:05:13.678Z,97838.25
2023-02-03T07:07:40.422Z,97829.16
2023-02-03T07:10:07.951Z,97833.56
2023-02-03T07:12:36.697Z,97838.34
2023-02-03T07:15:07.451Z,97837.56
2023-02-03T07:17:34.189Z,97839.94
2023-02-03T07:20:00.905Z,97837.09
2023-02-03T07:22:28.151Z,97843.03
2023-02-03T07:24:54.709Z,97846.94
2023-02-03T07:27:21.810Z,97841.31
2023-02-03T07:29:48.657Z,97838.19
2023-02-03T07:32:15.747Z,97856.78
2023-02-03T07:34:42.414Z,97858.00
2023-02-03T07:37:09.252Z,97846.09
2023-02-03T07:39:36.110Z,97858.03
2023-02-03T07:42:03.003Z,97846.19
2023-02-03T07:44:30.237Z,97851.81
2023-02-03T07:46:57.903Z,97844.66
2023-02-03T07:49:25.299Z,97851.00
2023-02-03T07:51:52.622Z,97853.38
2023-02-03T07:54:19.486Z,97853.75
2023-02-03T07:56:46.728Z,97856.53
2023-02-03T07:59:13.814Z,97865.66
2023-02-03T08:01:40.927Z,97868.44
2023-02-03T08:04:09.021Z,97869.19
2023-02-03T08:06:36.149Z,97867.59
2023-02-03T08:09:03.366Z,97860.84
2023-02-03T08:11:30.751Z,97869.13
2023-02-03T08:13:57.663Z,97874.28
2023-02-03T08:16:24.803Z,97868.34
2023-02-03T08:18:52.276Z,97865.19
2023-02-03T08:21:19.560Z,97873.81
2023-02-03T08:23:46.588Z,97864.19
2023-02-03T08:26:13.683Z,97854.72
2023-02-03T08:28:41.350Z,97861.41
2023-02-03T08:31:12.883Z,97864.22
2023-02-03T08:33:40.330Z,97863.03
2023-02-03T08:36:07.285Z,97867.41
2023-02-03T08:38:34.419Z,97861.88
2023-02-03T08:41:01.443Z,97861.91
2023-02-03T08:43:28.798Z,97861.78
2023-02-03T08:45:55.946Z,97841.66
2023-02-03T08:48:23.104Z,97829.28
2023-02-03T08:50:53.217Z,97805.53
2023-02-03T08:53:20.717Z,97812.44
2023-02-03T08:55:47.974Z,97835.13
2023-02-03T08:58:15.320Z,97841.75
2023-02-03T09:00:43.067Z,97884.72
2023-02-03T09:03:10.247Z,97897.44
2023-02-03T09:05:37.631Z,97903.88
2023-02-03T09:08:04.644Z,97889.88
2023-02-03T09:10:31.856Z,97880.41
2023-02-03T09:12:59.080Z,97897.22
2023-02-03T09:15:27.406Z,97897.72
2023-02-03T09:17:55.645Z,97908.19
2023-02-03T09:20:24.815Z,97900.59
2023-02-03T09:22:52.468Z,97901.72
2023-02-03T09:25:19.404Z,97905.53
2023-02-03T09:27:46.319Z,97899.59
2023-02-03T09:30:14.953Z,97897.91
2023-02-03T09:32:42.171Z,97897.13
2023-02-03T09:35:09.409Z,97881.97
2023-02-03T09:37:36.506Z,97884.66
2023-02-03T09:40:04.260Z,97887.09
2023-02-03T09:42:35.262Z,97890.41
2023-02-03T09:45:29.380Z,97894.50
2023-02-03T09:48:05.725Z,97886.63
2023-02-03T09:50:56.750Z,97900.75
2023-02-03T09:53:33.011Z,97910.47
2023-02-03T09:55:59.735Z,97914.13
2023-02-03T09:58:32.498Z,97905.31
2023-02-03T10:01:06.681Z,97902.25
2023-02-03T10:03:33.255Z,97899.56
2023-02-03T10:06:28.225Z,97901.69
2023-02-03T10:09:03.796Z,97900.88
2023-02-03T10:11:40.719Z,97896.91
2023-02-03T10:14:25.714Z,97896.78
2023-02-03T10:17:35.320Z,97895.13
2023-02-03T10:20:13.638Z,97895.28
2023-02-03T10:22:52.393Z,97893.91
2023-02-03T10:25:57.104Z,97886.47
2023-02-03T10:28:30.121Z,97878.72
2023-02-03T10:30:59.227Z,97872.88
2023-02-03T10:33:28.392Z,97877.44
2023-02-03T10:36:18.197Z,97876.28
2023-02-03T10:38:59.660Z,97868.19
2023-02-03T10:41:28.918Z,97866.84
2023-02-03T10:43:57.669Z,97855.28
2023-02-03T10:46:36.117Z,97860.22
2023-02-03T10:49:02.761Z,97856.63
2023-02-03T10:51:55.689Z,97847.56
2023-02-03T10:54:29.862Z,97847.69
2023-02-03T10:57:02.871Z,97852.75
2023-02-03T10:59:36.011Z,97846.81
2023-02-03T11:02:21.601Z,97843.22
2023-02-03T11:04:48.337Z,97835.75
2023-02-03T11:07:26.907Z,97830.19
2023-02-03T11:09:53.447Z,97837.06
2023-02-03T11:12:20.221Z,97816.16
2023-02-03T11:14:49.008Z,97822.53
2023-02-03T11:17:29.727Z,97818.63
2023-02-03T11:20:12.884Z,97818.66
2023-02-03T11:22:41.918Z,97816.59
2023-02-03T11:25:25.996Z,97829.34
2023-02-03T11:27:54.359Z,97817.00
2023-02-03T11:30:26.979Z,97815.03
2023-02-03T11:32:54.140Z,97790.13
2023-02-03T11:35:29.542Z,97800.97
2023-02-03T11:37:58.246Z,97790.34
2023-02-03T11:40:27.257Z,97783.06
2023-02-03T11:42:56.971Z,97781.00
2023-02-03T11:45:23.520Z,97774.44
2023-02-03T11:47:55.121Z,97766.78
2023-02-03T11:50:33.510Z,97781.41
2023-02-03T11:53:23.814Z,97778.69
2023-02-03T11:56:04.579Z,97770.22
2023-02-03T11:58:49.279Z,97778.59
2023-02-03T12:01:53.404Z,97778.44
2023-02-03T12:04:38.704Z,97772.00
2023-02-03T12:07:23.808Z,97776.72
2023-02-03T12:10:00.364Z,97770.22
2023-02-03T12:12:39.192Z,97763.09
2023-02-03T12:15:30.373Z,97771.88
2023-02-03T12:18:18.693Z,97763.50
2023-02-03T12:21:02.976Z,97754.03
2023-02-03T12:23:34.531Z,97763.84
2023-02-03T12:26:01.078Z,97758.09
2023-02-03T12:28:45.648Z,97763.50
2023-02-03T12:31:39.648Z,97766.66
2023-02-03T12:34:21.306Z,97760.59
2023-02-03T12:37:12.403Z,97764.00
2023-02-03T12:39:50.646Z,97764.13
2023-02-03T12:42:20.122Z,97759.50
2023-02-03T12:44:50.232Z,97762.56
2023-02-03T12:47:20.860Z,97758.91
2023-02-03T12:50:14.930Z,97752.16
2023-02-03T12:52:49.144Z,97753.91
2023-02-03T12:55:35.168Z,97743.66
2023-02-03T12:58:10.767Z,97740.56
2023-02-03T13:00:52.166Z,97731.66
2023-02-03T13:03:28.604Z,97733.38
2023-02-03T13:06:15.978Z,97732.38
2023-02-03T13:08:52.251Z,97733.28
2023-02-03T13:11:24.788Z,97732.72
2023-02-03T13:14:02.192Z,97725.72
2023-02-03T13:16:35.465Z,97713.72
2023-02-03T13:19:13.730Z,97721.66
2023-02-03T13:21:42.004Z,97722.69
2023-02-03T13:24:11.394Z,97722.09
2023-02-03T13:26:48.705Z,97727.31
2023-02-03T13:29:40.260Z,97710.00
2023-02-03T13:32:43.689Z,97711.72
2023-02-03T13:35:34.646Z,97706.66
2023-02-03T13:38:13.673Z,97712.19
2023-02-03T13:41:03.415Z,97706.91
2023-02-03T13:43:39.320Z,97707.75
2023-02-03T13:46:17.934Z,97715.50
2023-02-03T13:48:46.967Z,97708.00
2023-02-03T13:51:18.114Z,97714.84
2023-02-03T13:53:47.469Z,97712.88
2023-02-03T13:56:23.008Z,97719.97
2023-02-03T13:59:07.250Z,97725.69
2023-02-03T14:01:39.933Z,97735.47
2023-02-03T14:04:28.073Z,97724.09
2023-02-03T14:06:57.355Z,97727.28
2023-02-03T14:09:34.434Z,97734.66
2023-02-03T14:12:16.171Z,97733.06
2023-02-03T14:15:17.421Z,97727.22
2023-02-03T14:17:43.890Z,97724.53
2023-02-03T14:20:25.348Z,97723.81
2023-02-03T14:22:58.619Z,97725.94
2023-02-03T14:25:27.333Z,97720.91
2023-02-03T14:28:02.644Z,97725.34
2023-02-03T14:30:29.349Z,97722.19
2023-02-03T14:32:58.641Z,97725.81
2023-02-03T14:35:40.264Z,97732.38
2023-02-03T14:38:14.041Z,97734.00
2023-02-03T14:40:47.062Z,97724.81
2023-02-03T14:43:25.566Z,97743.53
2023-02-03T14:46:05.280Z,97742.34
2023-02-03T14:48:54.378Z,97740.94
2023-02-03T14:51:56.538Z,97731.84
2023-02-03T14:54:50.364Z,97732.50
2023-02-03T14:57:27.210Z,97726.44
2023-02-03T15:00:19.642Z,97732.97
2023-02-03T15:03:10.946Z,97740.69
2023-02-03T15:05:46.495Z,97731.91
2023-02-03T15:08:33.538Z,97736.69
2023-02-03T15:11:01.599Z,97730.47
2023-02-03T15:13:31.217Z,97724.00
2023-02-03T15:16:01.418Z,97680.00
2023-02-03T15:18:36.269Z,97709.13
2023-02-03T15:21:03.726Z,97709.53
2023-02-03T15:23:38.778Z,97695.81
2023-02-03T15:26:44.656Z,97719.03
2023-02-03T15:29:21.972Z,97716.22
2023-02-03T15:31:53.666Z,97698.81
2023-02-03T15:34:29.854Z,97711.50
2023-02-03T15:37:01.938Z,97706.03
2023-02-03T15:39:34.985Z,97692.34
2023-02-03T15:42:05.502Z,97702.25
2023-02-03T15:45:01.579Z,97699.25
2023-02-03T15:47:38.477Z,97689.41
2023-02-03T15:50:24.085Z,97700.19
2023-02-03T15:52:53.713Z,97704.31
2023-02-03T15:55:39.419Z,97700.47
2023-02-03T15:58:06.917Z,97683.13
2023-02-03T16:00:35.449Z,97709.28
2023-02-03T16:03:05.460Z,97690.31
2023-02-03T16:05:34.790Z,97690.75
2023-02-03T16:08:40.255Z,97695.25
2023-02-03T16:11:34.501Z,97693.91
2023-02-03T16:14:07.117Z,97686.06
2023-02-03T16:16:39.578Z,97684.22
2023-02-03T16:19:14.448Z,97684.50
2023-02-03T16:21:50.178Z,97687.34
2023-02-03T16:24:35.085Z,97670.78
2023-02-03T16:27:21.625Z,97667.28
2023-02-03T16:30:07.091Z,97669.34
2023-02-03T16:32:52.387Z,97665.06
2023-02-03T16:35:37.493Z,97668.69
2023-02-03T16:38:40.885Z,97658.44
2023-02-03T16:41:35.593Z,97658.44
2023-02-03T16:44:20.995Z,97661.19
2023-02-03T16:47:06.817Z,97660.03
2023-02-03T16:49:52.101Z,97650.50
2023-02-03T16:52:18.720Z,97649.75
2023-02-03T16:54:45.412Z,97644.59
2023-02-03T16:57:12.041Z,97637.84
2023-02-03T16:59:38.602Z,97641.00
2023-02-03T17:02:05.273Z,97656.47
2023-02-03T17:04:31.991Z,97649.34
2023-02-03T17:06:58.505Z,97655.28
2023-02-03T17:09:25.179Z,97637.84
2023-02-03T17:11:52.023Z,97628.34
2023-02-03T17:14:18.677Z,97647.34
2023-02-03T17:16:45.330Z,97642.59
2023-02-03T17:19:12.508Z,97638.59
2023-02-03T17:21:39.429Z,97637.06
2023-02-03T17:24:06.615Z,97641.78
2023-02-03T17:26:34.394Z,97645.38
2023-02-03T17:29:03.372Z,97637.06
2023-02-03T17:31:31.476Z,97638.63
2023-02-03T17:33:58.605Z,97634.69
2023-02-03T17:36:25.167Z,97632.31
2023-02-03T17:55:22.820Z,97612.03
2023-02-03T17:57:49.370Z,97604.47
2023-02-03T18:00:17.356Z,97596.56
2023-02-03T18:02:44.255Z,97588.63
2023-02-03T18:05:11.326Z,97593.41
2023-02-03T18:07:37.864Z,97581.13
2023-02-03T18:10:04.735Z,97574.75
2023-02-03T18:12:31.337Z,97590.16
2023-02-03T18:14:58.004Z,97587.00
2023-02-03T18:17:24.609Z,97588.56
2023-02-03T18:19:55.706Z,97586.16
2023-02-03T18:22:23.110Z,97578.25
2023-02-03T18:24:52.655Z,97575.13
2023-02-03T18:27:19.642Z,97562.81
2023-02-03T18:29:47.256Z,97575.13
2023-02-03T18:32:15.845Z,97583.81
2023-02-03T18:34:42.416Z,97579.06
2023-02-03T18:37:09.197Z,97568.78
2023-02-03T18:39:35.931Z,97578.66
2023-02-03T18:42:03.073Z,97573.47
2023-02-03T18:44:29.643Z,97571.47
2023-02-03T18:46:57.104Z,97578.56
2023-02-03T18:49:23.722Z,97574.59
2023-02-03T18:51:50.277Z,97578.16
2023-02-03T18:54:16.824Z,97585.59
2023-02-03T18:56:43.484Z,97580.03
2023-02-03T18:59:11.295Z,97561.44
2023-02-03T19:01:39.184Z,97582.38
2023-02-03T19:04:06.620Z,97555.84
2023-02-03T19:06:34.428Z,97578.44
2023-02-03T19:09:01.441Z,97584.38
2023-02-03T19:11:28.629Z,97577.28
2023-02-03T19:13:55.489Z,97566.13
2023-02-03T19:16:22.134Z,97558.22
2023-02-03T19:18:48.745Z,97551.22
2023-02-03T19:21:15.359Z,97542.97
2023-02-03T19:23:42.195Z,97540.25
2023-02-03T19:26:10.009Z,97538.66
2023-02-03T19:28:37.226Z,97541.84
2023-02-03T19:31:13.227Z,97543.44
2023-02-03T19:33:39.934Z,97544.97
2023-02-03T19:36:07.326Z,97551.31
2023-02-03T19:38:34.791Z,97540.25
2023-02-03T19:41:02.537Z,97529.22
2023-02-03T19:43:31.247Z,97516.19
2023-02-03T19:45:57.989Z,97507.91
2023-02-03T19:48:25.041Z,97499.97
2023-02-03T19:50:51.678Z,97515.00
2023-02-03T19:53:18.777Z,97501.94
2023-02-03T19:55:46.459Z,97499.94
2023-02-03T19:58:14.369Z,97492.03
2023-02-03T20:00:42.350Z,97488.09
2023-02-03T20:03:10.502Z,97484.13
2023-02-03T20:05:37.601Z,97474.69
2023-02-03T20:08:05.237Z,97476.25
2023-02-03T20:10:32.922Z,97469.16
2023-02-03T20:13:00.017Z,97471.50
2023-02-03T20:15:26.948Z,97469.94
2023-02-03T20:17:53.671Z,97457.69
2023-02-03T20:20:20.950Z,97453.75
2023-02-03T20:22:48.633Z,97441.47
2023-02-03T20:25:15.998Z,97444.63
2023-02-03T20:27:42.813Z,97409.78
2023-02-03T20:30:10.458Z,97435.13
2023-02-03T20:32:37.220Z,97419.31
2023-02-03T20:35:04.980Z,97429.97
2023-02-03T20:37:32.269Z,97436.66
2023-02-03T20:39:58.670Z,97442.13
2023-02-03T20:42:25.205Z,97437.78
2023-02-03T20:44:51.751Z,97446.03
2023-02-03T20:47:19.104Z,97441.78
2023-02-03T20:49:47.852Z,97433.50
2023-02-03T20:52:17.226Z,97422.47
2023-02-03T20:54:44.075Z,97432.75
2023-02-03T20:57:14.708Z,97415.41
2023-02-03T20:59:42.007Z,97416.22
2023-02-03T21:02:17.773Z,97406.72
2023-02-03T21:05:00.729Z,97403.19
2023-02-03T21:07:30.638Z,97417.00
2023-02-03T21:10:00.923Z,97400.00
2023-02-03T21:12:28.565Z,97381.06
2023-02-03T21:14:55.535Z,97392.94
2023-02-03T21:17:26.770Z,97383.03
2023-02-03T21:19:54.748Z,97385.03
2023-02-03T21:22:24.100Z,97381.47
2023-02-03T21:24:57.063Z,97377.09
2023-02-03T21:27:31.020Z,97387.38
2023-02-03T21:29:59.550Z,97378.28
2023-02-03T21:32:36.196Z,97363.25
2023-02-03T21:35:02.770Z,97348.22
2023-02-03T21:37:41.453Z,97367.22
2023-02-03T21:40:22.659Z,97349.06
2023-02-03T21:42:49.272Z,97364.47
2023-02-03T21:45:21.492Z,97373.19
2023-02-03T21:47:50.139Z,97368.81
2023-02-03T21:50:35.207Z,97366.44
2023-02-03T21:53:07.546Z,97372.78
2023-02-03T21:55:34.714Z,97371.19
2023-02-03T21:58:29.079Z,97364.88
2023-02-03T22:00:58.259Z,97354.22
2023-02-03T22:03:24.871Z,97330.88
2023-02-03T22:05:52.375Z,97340.38
2023-02-03T22:08:23.094Z,97326.16
2023-02-03T22:10:50.130Z,97336.00
2023-02-03T22:13:17.779Z,97345.09
2023-02-03T22:15:46.023Z,97347.09
2023-02-03T22:18:12.597Z,97352.25
2023-02-03T22:20:39.130Z,97344.34
2023-02-03T22:23:06.002Z,97341.16
2023-02-03T22:25:32.718Z,97326.13
2023-02-03T22:27:59.353Z,97318.25
2023-02-03T22:30:25.915Z,97318.25
2023-02-03T22:32:52.545Z,97320.63
2023-02-03T22:35:19.110Z,97319.81
2023-02-03T22:37:45.729Z,97310.34
2023-02-03T22:40:12.636Z,97304.00
2023-02-03T22:42:39.386Z,97296.88
2023-02-03T22:45:06.517Z,97296.88
2023-02-03T22:47:33.042Z,97299.66
2023-02-03T22:49:59.622Z,97297.28
2023-02-03T22:52:26.148Z,97300.06
2023-02-03T22:54:52.744Z,97296.13
2023-02-03T22:57:21.944Z,97288.59
2023-02-03T22:59:48.472Z,97289.41
2023-02-03T23:02:15.106Z,97280.28
2023-02-03T23:04:41.803Z,97271.59
2023-02-03T23:07:08.697Z,97280.25
2023-02-03T23:09:35.323Z,97279.44
2023-02-03T23:12:01.949Z,97277.50
2023-02-03T23:14:28.796Z,97274.69
2023-02-03T23:16:55.339Z,97275.50
2023-02-03T23:19:21.891Z,97262.84
2023-02-03T23:21:48.505Z,97257.34
2023-02-03T23:24:15.075Z,97256.94
2023-02-03T23:26:41.710Z,97260.53
2023-02-03T23:29:08.664Z,97247.47
2023-02-03T23:31:35.486Z,97245.47
2023-02-03T23:34:20.453Z,97248.25
2023-02-03T23:36:47.036Z,97239.53
2023-02-03T23:39:13.602Z,97247.84
2023-02-03T23:41:40.181Z,97242.31
2023-02-03T23:44:06.747Z,97256.13
2023-02-03T23:46:33.321Z,97256.53
2023-02-03T23:48:59.865Z,97255.75
2023-02-03T23:51:26.383Z,97241.56
2023-02-03T23:53:52.891Z,97242.38
2023-02-03T23:56:19.405Z,97239.56
2023-02-03T23:58:45.932Z,97237.63
